sensor_id;sensor_type;location;lat;lon;timestamp;temperature;humidity
74171;DHT22;62526;50.948;6.590;2023-05-16T00:01:50;11.50;99.90
74171;DHT22;62526;50.948;6.590;2023-05-16T00:04:16;11.50;99.90
74171;DHT22;62526;50.948;6.590;2023-05-16T00:06:43;11.50;99.90
74171;DHT22;62526;50.948;6.590;2023-05-16T00:09:10;11.50;99.90
74171;DHT22;62526;50.948;6.590;2023-05-16T00:11:36;11.40;99.90
74171;DHT22;62526;50.948;6.590;2023-05-16T00:14:03;11.40;99.90
74171;DHT22;62526;50.948;6.590;2023-05-16T00:16:29;11.40;99.90
74171;DHT22;62526;50.948;6.590;2023-05-16T00:18:56;11.40;99.90
74171;DHT22;62526;50.948;6.590;2023-05-16T00:21:23;11.40;99.90
74171;DHT22;62526;50.948;6.590;2023-05-16T00:23:49;11.40;99.90
74171;DHT22;62526;50.948;6.590;2023-05-16T00:26:16;11.30;99.90
74171;DHT22;62526;50.948;6.590;2023-05-16T00:28:43;11.30;99.90
74171;DHT22;62526;50.948;6.590;2023-05-16T00:31:09;11.20;99.90
74171;DHT22;62526;50.948;6.590;2023-05-16T00:33:36;11.20;99.90
74171;DHT22;62526;50.948;6.590;2023-05-16T00:36:02;11.30;99.90
74171;DHT22;62526;50.948;6.590;2023-05-16T00:38:29;11.30;99.90
74171;DHT22;62526;50.948;6.590;2023-05-16T00:40:56;11.30;99.90
74171;DHT22;62526;50.948;6.590;2023-05-16T00:43:22;11.30;99.90
74171;DHT22;62526;50.948;6.590;2023-05-16T00:45:49;11.30;99.90
74171;DHT22;62526;50.948;6.590;2023-05-16T00:48:15;11.30;99.90
74171;DHT22;62526;50.948;6.590;2023-05-16T00:50:42;11.30;99.90
74171;DHT22;62526;50.948;6.590;2023-05-16T00:53:09;11.30;99.90
74171;DHT22;62526;50.948;6.590;2023-05-16T00:55:35;11.20;99.90
74171;DHT22;62526;50.948;6.590;2023-05-16T00:58:02;11.00;99.90
74171;DHT22;62526;50.948;6.590;2023-05-16T01:00:28;10.90;99.90
74171;DHT22;62526;50.948;6.590;2023-05-16T01:02:55;10.80;99.90
74171;DHT22;62526;50.948;6.590;2023-05-16T01:05:22;10.80;99.90
74171;DHT22;62526;50.948;6.590;2023-05-16T01:07:48;10.80;99.90
74171;DHT22;62526;50.948;6.590;2023-05-16T01:10:15;10.80;99.90
74171;DHT22;62526;50.948;6.590;2023-05-16T01:12:47;10.80;99.90
74171;DHT22;62526;50.948;6.590;2023-05-16T01:15:14;10.80;99.90
74171;DHT22;62526;50.948;6.590;2023-05-16T01:17:59;10.70;99.90
74171;DHT22;62526;50.948;6.590;2023-05-16T01:20:42;10.70;99.90
74171;DHT22;62526;50.948;6.590;2023-05-16T01:26:25;10.70;99.90
74171;DHT22;62526;50.948;6.590;2023-05-16T01:28:52;10.70;99.90
74171;DHT22;62526;50.948;6.590;2023-05-16T01:31:19;10.70;99.90
74171;DHT22;62526;50.948;6.590;2023-05-16T01:33:45;10.70;99.90
74171;DHT22;62526;50.948;6.590;2023-05-16T01:36:18;10.70;99.90
74171;DHT22;62526;50.948;6.590;2023-05-16T01:38:48;10.70;99.90
74171;DHT22;62526;50.948;6.590;2023-05-16T01:41:17;10.60;99.90
74171;DHT22;62526;50.948;6.590;2023-05-16T01:43:42;10.60;99.90
74171;DHT22;62526;50.948;6.590;2023-05-16T01:46:09;10.50;99.90
74171;DHT22;62526;50.948;6.590;2023-05-16T01:48:38;10.50;99.90
74171;DHT22;62526;50.948;6.590;2023-05-16T01:51:02;10.50;99.90
74171;DHT22;62526;50.948;6.590;2023-05-16T01:53:32;10.50;99.90
74171;DHT22;62526;50.948;6.590;2023-05-16T01:55:55;10.50;99.90
74171;DHT22;62526;50.948;6.590;2023-05-16T01:58:22;10.40;99.90
74171;DHT22;62526;50.948;6.590;2023-05-16T02:00:48;10.40;99.90
74171;DHT22;62526;50.948;6.590;2023-05-16T02:03:15;10.40;99.90
74171;DHT22;62526;50.948;6.590;2023-05-16T02:05:41;10.40;99.90
74171;DHT22;62526;50.948;6.590;2023-05-16T02:08:08;10.30;99.90
74171;DHT22;62526;50.948;6.590;2023-05-16T02:10:35;10.30;99.90
74171;DHT22;62526;50.948;6.590;2023-05-16T02:13:01;10.30;99.90
74171;DHT22;62526;50.948;6.590;2023-05-16T02:15:28;10.20;99.90
74171;DHT22;62526;50.948;6.590;2023-05-16T02:17:54;10.20;99.90
74171;DHT22;62526;50.948;6.590;2023-05-16T02:20:21;10.20;99.90
74171;DHT22;62526;50.948;6.590;2023-05-16T02:22:48;10.20;99.90
74171;DHT22;62526;50.948;6.590;2023-05-16T02:25:14;10.10;99.90
74171;DHT22;62526;50.948;6.590;2023-05-16T02:27:41;10.10;99.90
74171;DHT22;62526;50.948;6.590;2023-05-16T02:30:09;10.00;99.90
74171;DHT22;62526;50.948;6.590;2023-05-16T02:32:36;10.00;99.90
74171;DHT22;62526;50.948;6.590;2023-05-16T02:35:02;10.00;99.90
74171;DHT22;62526;50.948;6.590;2023-05-16T02:37:29;10.00;99.90
74171;DHT22;62526;50.948;6.590;2023-05-16T02:39:56;10.00;99.90
74171;DHT22;62526;50.948;6.590;2023-05-16T02:42:24;10.00;99.90
74171;DHT22;62526;50.948;6.590;2023-05-16T02:44:49;10.00;99.90
74171;DHT22;62526;50.948;6.590;2023-05-16T02:47:15;10.00;99.90
74171;DHT22;62526;50.948;6.590;2023-05-16T02:49:42;10.00;99.90
74171;DHT22;62526;50.948;6.590;2023-05-16T02:52:09;10.00;99.90
74171;DHT22;62526;50.948;6.590;2023-05-16T02:54:35;10.00;99.90
74171;DHT22;62526;50.948;6.590;2023-05-16T02:57:02;10.00;99.90
74171;DHT22;62526;50.948;6.590;2023-05-16T02:59:28;10.00;99.90
74171;DHT22;62526;50.948;6.590;2023-05-16T03:01:56;10.00;99.90
74171;DHT22;62526;50.948;6.590;2023-05-16T03:04:23;10.00;99.90
74171;DHT22;62526;50.948;6.590;2023-05-16T03:06:49;10.10;99.90
74171;DHT22;62526;50.948;6.590;2023-05-16T03:09:16;10.10;99.90
74171;DHT22;62526;50.948;6.590;2023-05-16T03:11:42;10.10;99.90
74171;DHT22;62526;50.948;6.590;2023-05-16T03:14:09;10.00;99.90
74171;DHT22;62526;50.948;6.590;2023-05-16T03:16:35;10.10;99.90
74171;DHT22;62526;50.948;6.590;2023-05-16T03:19:02;10.10;99.90
74171;DHT22;62526;50.948;6.590;2023-05-16T03:21:29;10.10;99.90
74171;DHT22;62526;50.948;6.590;2023-05-16T03:23:56;10.10;99.90
74171;DHT22;62526;50.948;6.590;2023-05-16T03:26:22;10.10;99.90
74171;DHT22;62526;50.948;6.590;2023-05-16T03:28:49;10.10;99.90
74171;DHT22;62526;50.948;6.590;2023-05-16T03:31:15;10.00;99.90
74171;DHT22;62526;50.948;6.590;2023-05-16T03:33:42;10.00;99.90
74171;DHT22;62526;50.948;6.590;2023-05-16T03:36:08;10.00;99.90
74171;DHT22;62526;50.948;6.590;2023-05-16T03:38:35;10.00;99.90
74171;DHT22;62526;50.948;6.590;2023-05-16T03:41:02;10.00;99.90
74171;DHT22;62526;50.948;6.590;2023-05-16T03:43:28;10.00;99.90
74171;DHT22;62526;50.948;6.590;2023-05-16T03:45:55;9.90;99.90
74171;DHT22;62526;50.948;6.590;2023-05-16T03:48:21;9.80;99.90
74171;DHT22;62526;50.948;6.590;2023-05-16T03:50:48;9.80;99.90
74171;DHT22;62526;50.948;6.590;2023-05-16T03:53:15;9.80;99.90
74171;DHT22;62526;50.948;6.590;2023-05-16T03:55:41;9.80;99.90
74171;DHT22;62526;50.948;6.590;2023-05-16T03:58:08;9.70;99.90
74171;DHT22;62526;50.948;6.590;2023-05-16T04:00:34;9.60;99.90
74171;DHT22;62526;50.948;6.590;2023-05-16T04:03:01;9.50;99.90
74171;DHT22;62526;50.948;6.590;2023-05-16T04:05:28;9.40;99.90
74171;DHT22;62526;50.948;6.590;2023-05-16T04:07:54;9.30;99.90
74171;DHT22;62526;50.948;6.590;2023-05-16T04:10:21;9.20;99.90
74171;DHT22;62526;50.948;6.590;2023-05-16T04:12:47;9.20;99.90
74171;DHT22;62526;50.948;6.590;2023-05-16T04:15:14;9.10;99.90
74171;DHT22;62526;50.948;6.590;2023-05-16T04:17:41;9.00;99.90
74171;DHT22;62526;50.948;6.590;2023-05-16T04:20:08;9.00;99.90
74171;DHT22;62526;50.948;6.590;2023-05-16T04:22:34;9.00;99.90
74171;DHT22;62526;50.948;6.590;2023-05-16T04:25:01;8.90;99.90
74171;DHT22;62526;50.948;6.590;2023-05-16T04:27:27;8.90;99.90
74171;DHT22;62526;50.948;6.590;2023-05-16T04:29:54;8.90;99.90
74171;DHT22;62526;50.948;6.590;2023-05-16T04:32:21;8.80;99.90
74171;DHT22;62526;50.948;6.590;2023-05-16T04:34:47;8.80;99.90
74171;DHT22;62526;50.948;6.590;2023-05-16T04:37:14;8.70;99.90
74171;DHT22;62526;50.948;6.590;2023-05-16T04:39:40;8.70;99.90
74171;DHT22;62526;50.948;6.590;2023-05-16T04:42:07;8.70;99.90
74171;DHT22;62526;50.948;6.590;2023-05-16T04:44:34;8.70;99.90
74171;DHT22;62526;50.948;6.590;2023-05-16T04:47:00;8.70;99.90
74171;DHT22;62526;50.948;6.590;2023-05-16T04:49:27;8.70;99.90
74171;DHT22;62526;50.948;6.590;2023-05-16T04:51:53;8.70;99.90
74171;DHT22;62526;50.948;6.590;2023-05-16T04:54:20;8.60;99.90
74171;DHT22;62526;50.948;6.590;2023-05-16T04:56:47;8.60;99.90
74171;DHT22;62526;50.948;6.590;2023-05-16T04:59:13;8.60;99.90
74171;DHT22;62526;50.948;6.590;2023-05-16T05:01:40;8.60;99.90
74171;DHT22;62526;50.948;6.590;2023-05-16T05:04:07;8.70;99.90
74171;DHT22;62526;50.948;6.590;2023-05-16T05:06:33;8.70;99.90
74171;DHT22;62526;50.948;6.590;2023-05-16T05:09:00;8.70;99.90
74171;DHT22;62526;50.948;6.590;2023-05-16T05:11:26;8.70;99.90
74171;DHT22;62526;50.948;6.590;2023-05-16T05:13:53;8.70;99.90
74171;DHT22;62526;50.948;6.590;2023-05-16T05:16:19;8.80;99.90
74171;DHT22;62526;50.948;6.590;2023-05-16T05:18:46;8.80;99.90
74171;DHT22;62526;50.948;6.590;2023-05-16T05:21:13;8.80;99.90
74171;DHT22;62526;50.948;6.590;2023-05-16T05:23:41;8.80;99.90
74171;DHT22;62526;50.948;6.590;2023-05-16T05:26:08;8.90;99.90
74171;DHT22;62526;50.948;6.590;2023-05-16T05:28:34;8.90;99.90
74171;DHT22;62526;50.948;6.590;2023-05-16T05:31:01;8.90;99.90
74171;DHT22;62526;50.948;6.590;2023-05-16T05:33:27;8.90;99.90
74171;DHT22;62526;50.948;6.590;2023-05-16T05:35:54;8.90;99.90
74171;DHT22;62526;50.948;6.590;2023-05-16T05:38:21;9.00;99.90
74171;DHT22;62526;50.948;6.590;2023-05-16T05:40:47;9.00;99.90
74171;DHT22;62526;50.948;6.590;2023-05-16T05:43:14;9.00;99.90
74171;DHT22;62526;50.948;6.590;2023-05-16T05:45:40;9.00;99.90
74171;DHT22;62526;50.948;6.590;2023-05-16T05:48:07;9.10;99.90
74171;DHT22;62526;50.948;6.590;2023-05-16T05:50:34;9.20;99.90
74171;DHT22;62526;50.948;6.590;2023-05-16T05:53:00;9.20;99.90
74171;DHT22;62526;50.948;6.590;2023-05-16T05:55:27;9.20;99.90
74171;DHT22;62526;50.948;6.590;2023-05-16T05:57:53;9.30;99.90
74171;DHT22;62526;50.948;6.590;2023-05-16T06:00:20;9.40;99.90
74171;DHT22;62526;50.948;6.590;2023-05-16T06:02:47;9.50;99.90
74171;DHT22;62526;50.948;6.590;2023-05-16T06:05:13;9.60;99.90
74171;DHT22;62526;50.948;6.590;2023-05-16T06:07:40;9.70;99.90
74171;DHT22;62526;50.948;6.590;2023-05-16T06:10:07;9.80;99.90
74171;DHT22;62526;50.948;6.590;2023-05-16T06:12:34;9.90;99.90
74171;DHT22;62526;50.948;6.590;2023-05-16T06:15:00;10.00;99.90
74171;DHT22;62526;50.948;6.590;2023-05-16T06:17:27;10.10;99.90
74171;DHT22;62526;50.948;6.590;2023-05-16T06:19:53;10.30;99.90
74171;DHT22;62526;50.948;6.590;2023-05-16T06:22:20;10.40;99.90
74171;DHT22;62526;50.948;6.590;2023-05-16T06:24:47;10.50;99.90
74171;DHT22;62526;50.948;6.590;2023-05-16T06:27:13;10.70;99.90
74171;DHT22;62526;50.948;6.590;2023-05-16T06:29:40;10.80;99.90
74171;DHT22;62526;50.948;6.590;2023-05-16T06:32:06;10.90;99.90
74171;DHT22;62526;50.948;6.590;2023-05-16T06:34:33;10.90;99.90
74171;DHT22;62526;50.948;6.590;2023-05-16T06:37:00;10.90;99.90
74171;DHT22;62526;50.948;6.590;2023-05-16T06:39:26;10.80;99.90
74171;DHT22;62526;50.948;6.590;2023-05-16T06:41:53;10.80;99.90
74171;DHT22;62526;50.948;6.590;2023-05-16T06:44:21;10.90;99.90
74171;DHT22;62526;50.948;6.590;2023-05-16T06:46:46;10.90;99.90
74171;DHT22;62526;50.948;6.590;2023-05-16T06:49:13;10.90;99.90
74171;DHT22;62526;50.948;6.590;2023-05-16T06:51:39;11.00;99.90
74171;DHT22;62526;50.948;6.590;2023-05-16T06:54:06;11.00;99.90
74171;DHT22;62526;50.948;6.590;2023-05-16T06:56:33;11.10;99.90
74171;DHT22;62526;50.948;6.590;2023-05-16T06:58:59;11.30;99.90
74171;DHT22;62526;50.948;6.590;2023-05-16T07:01:26;11.30;99.90
74171;DHT22;62526;50.948;6.590;2023-05-16T07:03:52;11.50;99.90
74171;DHT22;62526;50.948;6.590;2023-05-16T07:06:19;11.70;99.90
74171;DHT22;62526;50.948;6.590;2023-05-16T07:08:46;11.80;99.90
74171;DHT22;62526;50.948;6.590;2023-05-16T07:11:12;11.90;99.90
74171;DHT22;62526;50.948;6.590;2023-05-16T07:13:39;12.10;99.90
74171;DHT22;62526;50.948;6.590;2023-05-16T07:16:05;12.10;99.90
74171;DHT22;62526;50.948;6.590;2023-05-16T07:18:32;12.10;99.90
74171;DHT22;62526;50.948;6.590;2023-05-16T07:20:59;12.10;99.90
74171;DHT22;62526;50.948;6.590;2023-05-16T07:23:25;12.10;99.90
74171;DHT22;62526;50.948;6.590;2023-05-16T07:25:52;12.00;99.90
74171;DHT22;62526;50.948;6.590;2023-05-16T07:28:18;12.00;99.90
74171;DHT22;62526;50.948;6.590;2023-05-16T07:30:45;11.90;99.90
74171;DHT22;62526;50.948;6.590;2023-05-16T07:33:12;12.00;99.90
74171;DHT22;62526;50.948;6.590;2023-05-16T07:35:38;12.10;99.90
74171;DHT22;62526;50.948;6.590;2023-05-16T07:38:05;12.30;99.90
74171;DHT22;62526;50.948;6.590;2023-05-16T07:40:31;12.70;99.90
74171;DHT22;62526;50.948;6.590;2023-05-16T07:42:58;13.00;99.90
74171;DHT22;62526;50.948;6.590;2023-05-16T07:45:25;13.10;99.90
74171;DHT22;62526;50.948;6.590;2023-05-16T07:47:51;13.30;99.90
74171;DHT22;62526;50.948;6.590;2023-05-16T07:50:18;13.40;99.90
74171;DHT22;62526;50.948;6.590;2023-05-16T07:52:44;13.40;99.90
74171;DHT22;62526;50.948;6.590;2023-05-16T07:55:11;13.40;99.90
74171;DHT22;62526;50.948;6.590;2023-05-16T07:57:38;13.60;99.90
74171;DHT22;62526;50.948;6.590;2023-05-16T08:00:06;13.60;99.90
74171;DHT22;62526;50.948;6.590;2023-05-16T08:02:33;13.70;99.90
74171;DHT22;62526;50.948;6.590;2023-05-16T08:04:59;13.80;99.90
74171;DHT22;62526;50.948;6.590;2023-05-16T08:07:26;14.00;99.90
74171;DHT22;62526;50.948;6.590;2023-05-16T08:09:52;14.10;99.90
74171;DHT22;62526;50.948;6.590;2023-05-16T08:12:19;14.20;99.90
74171;DHT22;62526;50.948;6.590;2023-05-16T08:14:46;14.20;99.90
74171;DHT22;62526;50.948;6.590;2023-05-16T08:17:12;14.30;99.90
74171;DHT22;62526;50.948;6.590;2023-05-16T08:19:39;14.30;99.90
74171;DHT22;62526;50.948;6.590;2023-05-16T08:22:06;14.30;99.90
74171;DHT22;62526;50.948;6.590;2023-05-16T08:24:32;14.30;99.90
74171;DHT22;62526;50.948;6.590;2023-05-16T08:26:59;14.20;99.90
74171;DHT22;62526;50.948;6.590;2023-05-16T08:29:25;14.40;99.90
74171;DHT22;62526;50.948;6.590;2023-05-16T08:31:52;14.60;99.90
74171;DHT22;62526;50.948;6.590;2023-05-16T08:34:18;14.80;99.90
74171;DHT22;62526;50.948;6.590;2023-05-16T08:36:45;14.60;99.90
74171;DHT22;62526;50.948;6.590;2023-05-16T08:39:12;14.70;99.90
74171;DHT22;62526;50.948;6.590;2023-05-16T08:41:38;14.70;99.90
74171;DHT22;62526;50.948;6.590;2023-05-16T08:44:05;14.70;99.90
74171;DHT22;62526;50.948;6.590;2023-05-16T08:46:32;14.60;99.90
74171;DHT22;62526;50.948;6.590;2023-05-16T08:48:59;14.50;99.90
74171;DHT22;62526;50.948;6.590;2023-05-16T08:51:25;14.50;99.90
74171;DHT22;62526;50.948;6.590;2023-05-16T08:53:58;14.60;99.90
74171;DHT22;62526;50.948;6.590;2023-05-16T08:56:19;14.70;99.90
74171;DHT22;62526;50.948;6.590;2023-05-16T08:58:46;14.40;99.90
74171;DHT22;62526;50.948;6.590;2023-05-16T09:01:13;14.10;99.90
74171;DHT22;62526;50.948;6.590;2023-05-16T09:03:39;13.90;99.90
74171;DHT22;62526;50.948;6.590;2023-05-16T09:06:07;13.80;99.90
74171;DHT22;62526;50.948;6.590;2023-05-16T09:08:34;13.70;99.90
74171;DHT22;62526;50.948;6.590;2023-05-16T09:11:01;13.90;99.90
74171;DHT22;62526;50.948;6.590;2023-05-16T09:13:28;14.10;99.90
74171;DHT22;62526;50.948;6.590;2023-05-16T09:21:27;14.70;99.90
74171;DHT22;62526;50.948;6.590;2023-05-16T09:24:02;14.90;99.90
74171;DHT22;62526;50.948;6.590;2023-05-16T09:26:42;14.90;99.90
74171;DHT22;62526;50.948;6.590;2023-05-16T09:29:22;14.60;99.90
74171;DHT22;62526;50.948;6.590;2023-05-16T09:31:52;14.60;99.90
74171;DHT22;62526;50.948;6.590;2023-05-16T09:34:19;14.70;99.90
74171;DHT22;62526;50.948;6.590;2023-05-16T09:36:46;14.60;99.90
74171;DHT22;62526;50.948;6.590;2023-05-16T09:39:13;14.50;99.90
74171;DHT22;62526;50.948;6.590;2023-05-16T09:41:39;14.50;99.90
74171;DHT22;62526;50.948;6.590;2023-05-16T09:44:06;14.60;99.90
74171;DHT22;62526;50.948;6.590;2023-05-16T09:46:33;14.60;99.90
74171;DHT22;62526;50.948;6.590;2023-05-16T09:49:00;14.80;99.90
74171;DHT22;62526;50.948;6.590;2023-05-16T09:51:26;15.10;99.90
74171;DHT22;62526;50.948;6.590;2023-05-16T09:53:53;15.70;99.90
74171;DHT22;62526;50.948;6.590;2023-05-16T09:56:19;16.10;99.90
74171;DHT22;62526;50.948;6.590;2023-05-16T09:58:46;16.10;99.90
74171;DHT22;62526;50.948;6.590;2023-05-16T10:01:13;15.90;99.90
74171;DHT22;62526;50.948;6.590;2023-05-16T10:03:40;15.80;99.90
74171;DHT22;62526;50.948;6.590;2023-05-16T10:06:06;15.80;99.90
74171;DHT22;62526;50.948;6.590;2023-05-16T10:08:33;15.80;99.90
74171;DHT22;62526;50.948;6.590;2023-05-16T10:11:01;15.60;99.90
74171;DHT22;62526;50.948;6.590;2023-05-16T10:13:28;15.50;99.90
74171;DHT22;62526;50.948;6.590;2023-05-16T10:15:55;15.40;99.90
74171;DHT22;62526;50.948;6.590;2023-05-16T10:18:22;15.20;99.90
74171;DHT22;62526;50.948;6.590;2023-05-16T10:20:48;15.20;99.90
74171;DHT22;62526;50.948;6.590;2023-05-16T10:23:16;15.40;99.90
74171;DHT22;62526;50.948;6.590;2023-05-16T10:25:42;15.80;99.90
74171;DHT22;62526;50.948;6.590;2023-05-16T10:28:09;16.40;99.90
74171;DHT22;62526;50.948;6.590;2023-05-16T10:30:35;16.80;99.90
74171;DHT22;62526;50.948;6.590;2023-05-16T10:33:11;17.00;99.90
74171;DHT22;62526;50.948;6.590;2023-05-16T10:35:37;17.10;99.90
74171;DHT22;62526;50.948;6.590;2023-05-16T10:38:04;17.50;99.90
74171;DHT22;62526;50.948;6.590;2023-05-16T10:40:30;17.60;97.00
74171;DHT22;62526;50.948;6.590;2023-05-16T10:42:58;17.90;95.30
74171;DHT22;62526;50.948;6.590;2023-05-16T10:45:24;17.80;97.40
74171;DHT22;62526;50.948;6.590;2023-05-16T10:47:51;17.70;96.70
74171;DHT22;62526;50.948;6.590;2023-05-16T10:50:32;17.50;94.90
74171;DHT22;62526;50.948;6.590;2023-05-16T10:53:12;16.90;91.50
74171;DHT22;62526;50.948;6.590;2023-05-16T10:55:38;16.40;99.90
74171;DHT22;62526;50.948;6.590;2023-05-16T10:58:04;16.00;98.50
74171;DHT22;62526;50.948;6.590;2023-05-16T11:00:31;15.70;99.90
74171;DHT22;62526;50.948;6.590;2023-05-16T11:03:03;15.60;99.00
74171;DHT22;62526;50.948;6.590;2023-05-16T11:05:26;15.60;99.90
74171;DHT22;62526;50.948;6.590;2023-05-16T11:08:01;15.70;99.90
74171;DHT22;62526;50.948;6.590;2023-05-16T11:10:19;15.90;99.90
74171;DHT22;62526;50.948;6.590;2023-05-16T11:12:48;15.80;99.90
74171;DHT22;62526;50.948;6.590;2023-05-16T11:15:31;15.80;99.90
74171;DHT22;62526;50.948;6.590;2023-05-16T11:18:14;16.10;99.90
74171;DHT22;62526;50.948;6.590;2023-05-16T11:20:40;16.70;99.90
74171;DHT22;62526;50.948;6.590;2023-05-16T11:23:18;17.40;99.80
74171;DHT22;62526;50.948;6.590;2023-05-16T11:25:45;17.80;88.80
74171;DHT22;62526;50.948;6.590;2023-05-16T11:28:13;18.30;90.70
74171;DHT22;62526;50.948;6.590;2023-05-16T11:30:45;18.90;90.80
74171;DHT22;62526;50.948;6.590;2023-05-16T11:33:13;19.40;89.30
74171;DHT22;62526;50.948;6.590;2023-05-16T11:35:40;19.30;71.90
74171;DHT22;62526;50.948;6.590;2023-05-16T11:38:10;18.70;64.00
74171;DHT22;62526;50.948;6.590;2023-05-16T11:40:33;18.10;70.30
74171;DHT22;62526;50.948;6.590;2023-05-16T11:42:59;18.10;72.50
74171;DHT22;62526;50.948;6.590;2023-05-16T11:45:27;17.90;73.60
74171;DHT22;62526;50.948;6.590;2023-05-16T11:47:59;18.30;74.10
74171;DHT22;62526;50.948;6.590;2023-05-16T11:50:24;18.50;70.40
74171;DHT22;62526;50.948;6.590;2023-05-16T11:52:52;18.70;69.10
74171;DHT22;62526;50.948;6.590;2023-05-16T11:55:20;18.70;67.40
74171;DHT22;62526;50.948;6.590;2023-05-16T11:57:51;18.90;72.00
74171;DHT22;62526;50.948;6.590;2023-05-16T12:00:20;18.40;69.50
74171;DHT22;62526;50.948;6.590;2023-05-16T12:02:47;17.90;72.80
74171;DHT22;62526;50.948;6.590;2023-05-16T12:05:13;17.30;77.50
74171;DHT22;62526;50.948;6.590;2023-05-16T12:07:41;16.70;79.10
74171;DHT22;62526;50.948;6.590;2023-05-16T12:10:07;16.50;87.60
74171;DHT22;62526;50.948;6.590;2023-05-16T12:12:34;16.40;93.60
74171;DHT22;62526;50.948;6.590;2023-05-16T12:15:01;16.20;95.70
74171;DHT22;62526;50.948;6.590;2023-05-16T12:17:27;16.10;97.60
74171;DHT22;62526;50.948;6.590;2023-05-16T12:19:53;16.10;97.00
74171;DHT22;62526;50.948;6.590;2023-05-16T12:22:20;16.30;98.30
74171;DHT22;62526;50.948;6.590;2023-05-16T12:24:46;16.50;98.40
74171;DHT22;62526;50.948;6.590;2023-05-16T12:27:20;17.00;99.90
74171;DHT22;62526;50.948;6.590;2023-05-16T12:29:46;17.80;99.00
74171;DHT22;62526;50.948;6.590;2023-05-16T12:32:12;18.60;98.40
74171;DHT22;62526;50.948;6.590;2023-05-16T12:34:41;19.50;96.20
74171;DHT22;62526;50.948;6.590;2023-05-16T12:37:09;20.50;91.70
74171;DHT22;62526;50.948;6.590;2023-05-16T12:39:46;21.20;86.70
74171;DHT22;62526;50.948;6.590;2023-05-16T12:44:57;22.00;58.70
74171;DHT22;62526;50.948;6.590;2023-05-16T12:47:33;22.00;58.90
74171;DHT22;62526;50.948;6.590;2023-05-16T12:49:52;22.70;60.00
74171;DHT22;62526;50.948;6.590;2023-05-16T12:52:19;22.80;56.00
74171;DHT22;62526;50.948;6.590;2023-05-16T12:54:45;22.20;54.30
74171;DHT22;62526;50.948;6.590;2023-05-16T12:57:11;21.40;56.10
74171;DHT22;62526;50.948;6.590;2023-05-16T12:59:38;20.70;57.70
74171;DHT22;62526;50.948;6.590;2023-05-16T13:02:06;19.30;65.40
74171;DHT22;62526;50.948;6.590;2023-05-16T13:04:32;19.30;65.30
74171;DHT22;62526;50.948;6.590;2023-05-16T13:06:59;18.70;69.50
74171;DHT22;62526;50.948;6.590;2023-05-16T13:09:25;18.30;72.50
74171;DHT22;62526;50.948;6.590;2023-05-16T13:11:52;18.00;80.60
74171;DHT22;62526;50.948;6.590;2023-05-16T13:14:18;17.80;86.70
74171;DHT22;62526;50.948;6.590;2023-05-16T13:16:45;17.50;87.10
74171;DHT22;62526;50.948;6.590;2023-05-16T13:19:12;17.20;91.10
74171;DHT22;62526;50.948;6.590;2023-05-16T13:21:38;17.10;93.70
74171;DHT22;62526;50.948;6.590;2023-05-16T13:24:05;18.00;97.40
74171;DHT22;62526;50.948;6.590;2023-05-16T13:26:32;19.50;93.70
74171;DHT22;62526;50.948;6.590;2023-05-16T13:28:58;20.80;81.70
74171;DHT22;62526;50.948;6.590;2023-05-16T13:31:25;22.20;71.40
74171;DHT22;62526;50.948;6.590;2023-05-16T13:33:51;23.30;60.90
74171;DHT22;62526;50.948;6.590;2023-05-16T13:36:18;23.60;52.40
74171;DHT22;62526;50.948;6.590;2023-05-16T13:38:45;24.30;53.60
74171;DHT22;62526;50.948;6.590;2023-05-16T13:41:11;24.40;50.90
74171;DHT22;62526;50.948;6.590;2023-05-16T13:43:38;24.60;51.60
74171;DHT22;62526;50.948;6.590;2023-05-16T13:46:04;24.10;49.80
74171;DHT22;62526;50.948;6.590;2023-05-16T13:48:31;23.60;50.10
74171;DHT22;62526;50.948;6.590;2023-05-16T13:50:58;24.30;51.40
74171;DHT22;62526;50.948;6.590;2023-05-16T13:53:24;24.50;49.80
74171;DHT22;62526;50.948;6.590;2023-05-16T13:55:51;24.90;47.10
74171;DHT22;62526;50.948;6.590;2023-05-16T13:58:17;24.50;41.30
74171;DHT22;62526;50.948;6.590;2023-05-16T14:00:44;23.70;43.60
74171;DHT22;62526;50.948;6.590;2023-05-16T14:03:11;23.80;42.40
74171;DHT22;62526;50.948;6.590;2023-05-16T14:05:38;23.80;43.10
74171;DHT22;62526;50.948;6.590;2023-05-16T14:08:04;24.20;42.80
74171;DHT22;62526;50.948;6.590;2023-05-16T14:10:31;24.40;41.50
74171;DHT22;62526;50.948;6.590;2023-05-16T14:12:58;23.80;42.10
74171;DHT22;62526;50.948;6.590;2023-05-16T14:15:24;22.90;41.80
74171;DHT22;62526;50.948;6.590;2023-05-16T14:17:51;22.00;41.90
74171;DHT22;62526;50.948;6.590;2023-05-16T14:20:17;21.30;43.60
74171;DHT22;62526;50.948;6.590;2023-05-16T14:22:44;20.80;44.90
74171;DHT22;62526;50.948;6.590;2023-05-16T14:25:11;20.60;46.80
74171;DHT22;62526;50.948;6.590;2023-05-16T14:27:38;20.30;48.10
74171;DHT22;62526;50.948;6.590;2023-05-16T14:30:05;20.20;48.00
74171;DHT22;62526;50.948;6.590;2023-05-16T14:32:32;19.80;48.10
74171;DHT22;62526;50.948;6.590;2023-05-16T14:34:59;19.40;50.20
74171;DHT22;62526;50.948;6.590;2023-05-16T14:37:25;19.20;51.20
74171;DHT22;62526;50.948;6.590;2023-05-16T14:39:52;19.10;52.80
74171;DHT22;62526;50.948;6.590;2023-05-16T14:42:18;18.80;52.90
74171;DHT22;62526;50.948;6.590;2023-05-16T14:44:46;18.30;53.90
74171;DHT22;62526;50.948;6.590;2023-05-16T14:47:12;18.30;53.90
74171;DHT22;62526;50.948;6.590;2023-05-16T14:49:39;18.10;55.50
74171;DHT22;62526;50.948;6.590;2023-05-16T14:52:06;17.90;54.50
74171;DHT22;62526;50.948;6.590;2023-05-16T14:54:32;17.80;55.50
74171;DHT22;62526;50.948;6.590;2023-05-16T14:56:59;17.80;56.80
74171;DHT22;62526;50.948;6.590;2023-05-16T14:59:26;18.40;58.20
74171;DHT22;62526;50.948;6.590;2023-05-16T15:01:52;19.90;57.20
74171;DHT22;62526;50.948;6.590;2023-05-16T15:04:19;20.60;52.20
74171;DHT22;62526;50.948;6.590;2023-05-16T15:06:45;20.60;50.80
74171;DHT22;62526;50.948;6.590;2023-05-16T15:09:12;20.30;50.90
74171;DHT22;62526;50.948;6.590;2023-05-16T15:11:38;19.80;53.50
74171;DHT22;62526;50.948;6.590;2023-05-16T15:14:05;19.40;54.50
74171;DHT22;62526;50.948;6.590;2023-05-16T15:16:32;19.10;56.80
74171;DHT22;62526;50.948;6.590;2023-05-16T15:18:58;18.70;56.90
74171;DHT22;62526;50.948;6.590;2023-05-16T15:21:26;18.30;58.90
74171;DHT22;62526;50.948;6.590;2023-05-16T15:23:52;18.30;58.90
74171;DHT22;62526;50.948;6.590;2023-05-16T15:26:19;18.20;59.00
74171;DHT22;62526;50.948;6.590;2023-05-16T15:28:45;18.20;60.40
74171;DHT22;62526;50.948;6.590;2023-05-16T15:31:12;18.50;58.70
74171;DHT22;62526;50.948;6.590;2023-05-16T15:33:39;18.70;58.10
74171;DHT22;62526;50.948;6.590;2023-05-16T15:36:05;18.70;57.20
74171;DHT22;62526;50.948;6.590;2023-05-16T15:38:32;18.90;57.30
74171;DHT22;62526;50.948;6.590;2023-05-16T15:40:59;18.70;56.70
74171;DHT22;62526;50.948;6.590;2023-05-16T15:43:25;18.50;57.70